Aviation Digital Data Service (ADDS)

Output produced by TAFs form (1135 UTC 27 July 2016)
found at http://aviationweather.gov/adds/tafs/
 
KGUP 271123Z 2712/2812 VRB03KT P6SM SKC 
     FM272100 02010KT P6SM FEW110 
     FM280200 VRB05KT P6SM SKC